sensor_id;sensor_type;location;lat;lon;timestamp;P1;durP1;ratioP1;P2;durP2;ratioP2
49310;SDS011;35177;45.900;5.946;2023-02-15T00:01:08;62.92;;;27.67;;
49310;SDS011;35177;45.900;5.946;2023-02-15T00:03:34;66.68;;;30.02;;
49310;SDS011;35177;45.900;5.946;2023-02-15T00:06:00;59.30;;;26.23;;
49310;SDS011;35177;45.900;5.946;2023-02-15T00:08:26;71.75;;;31.70;;
49310;SDS011;35177;45.900;5.946;2023-02-15T00:10:51;69.32;;;28.95;;
49310;SDS011;35177;45.900;5.946;2023-02-15T00:13:17;74.82;;;32.22;;
49310;SDS011;35177;45.900;5.946;2023-02-15T00:15:42;79.00;;;35.40;;
49310;SDS011;35177;45.900;5.946;2023-02-15T00:18:07;72.18;;;31.85;;
49310;SDS011;35177;45.900;5.946;2023-02-15T00:20:33;84.18;;;35.67;;
49310;SDS011;35177;45.900;5.946;2023-02-15T00:22:59;84.28;;;36.47;;
49310;SDS011;35177;45.900;5.946;2023-02-15T00:25:25;94.25;;;36.75;;
49310;SDS011;35177;45.900;5.946;2023-02-15T00:27:50;82.38;;;35.85;;
49310;SDS011;35177;45.900;5.946;2023-02-15T00:30:16;93.18;;;37.80;;
49310;SDS011;35177;45.900;5.946;2023-02-15T00:32:41;80.00;;;34.20;;
49310;SDS011;35177;45.900;5.946;2023-02-15T00:35:07;77.82;;;34.00;;
49310;SDS011;35177;45.900;5.946;2023-02-15T00:37:34;93.80;;;37.25;;
49310;SDS011;35177;45.900;5.946;2023-02-15T00:40:00;87.00;;;35.00;;
49310;SDS011;35177;45.900;5.946;2023-02-15T00:42:26;78.75;;;32.95;;
49310;SDS011;35177;45.900;5.946;2023-02-15T00:44:51;93.80;;;36.75;;
49310;SDS011;35177;45.900;5.946;2023-02-15T00:47:17;82.57;;;35.50;;
49310;SDS011;35177;45.900;5.946;2023-02-15T00:49:42;82.10;;;33.42;;
49310;SDS011;35177;45.900;5.946;2023-02-15T00:52:08;80.68;;;32.53;;
49310;SDS011;35177;45.900;5.946;2023-02-15T00:54:33;70.97;;;28.95;;
49310;SDS011;35177;45.900;5.946;2023-02-15T00:56:59;70.38;;;31.00;;
49310;SDS011;35177;45.900;5.946;2023-02-15T00:59:25;68.53;;;30.92;;
49310;SDS011;35177;45.900;5.946;2023-02-15T01:01:50;62.53;;;28.60;;
49310;SDS011;35177;45.900;5.946;2023-02-15T01:04:16;66.13;;;29.17;;
49310;SDS011;35177;45.900;5.946;2023-02-15T01:06:41;63.78;;;27.92;;
49310;SDS011;35177;45.900;5.946;2023-02-15T01:09:07;59.13;;;27.50;;
49310;SDS011;35177;45.900;5.946;2023-02-15T01:11:32;54.95;;;26.73;;
49310;SDS011;35177;45.900;5.946;2023-02-15T01:13:58;58.63;;;26.70;;
49310;SDS011;35177;45.900;5.946;2023-02-15T01:16:25;81.80;;;33.80;;
49310;SDS011;35177;45.900;5.946;2023-02-15T01:18:52;66.65;;;28.40;;
49310;SDS011;35177;45.900;5.946;2023-02-15T01:21:21;67.65;;;28.90;;
49310;SDS011;35177;45.900;5.946;2023-02-15T01:23:47;70.10;;;32.35;;
49310;SDS011;35177;45.900;5.946;2023-02-15T01:26:14;90.43;;;35.00;;
49310;SDS011;35177;45.900;5.946;2023-02-15T01:28:40;81.70;;;34.10;;
49310;SDS011;35177;45.900;5.946;2023-02-15T01:31:09;83.07;;;34.17;;
49310;SDS011;35177;45.900;5.946;2023-02-15T01:33:39;76.45;;;30.10;;
49310;SDS011;35177;45.900;5.946;2023-02-15T01:36:05;67.55;;;31.83;;
49310;SDS011;35177;45.900;5.946;2023-02-15T01:38:31;73.07;;;30.60;;
49310;SDS011;35177;45.900;5.946;2023-02-15T01:40:58;68.07;;;30.98;;
49310;SDS011;35177;45.900;5.946;2023-02-15T01:43:45;72.07;;;31.70;;
49310;SDS011;35177;45.900;5.946;2023-02-15T01:46:12;73.85;;;32.60;;
49310;SDS011;35177;45.900;5.946;2023-02-15T01:48:43;65.15;;;28.73;;
49310;SDS011;35177;45.900;5.946;2023-02-15T01:51:11;70.18;;;30.77;;
49310;SDS011;35177;45.900;5.946;2023-02-15T01:53:39;68.90;;;32.08;;
49310;SDS011;35177;45.900;5.946;2023-02-15T01:56:09;63.78;;;28.05;;
49310;SDS011;35177;45.900;5.946;2023-02-15T01:58:38;55.92;;;27.23;;
49310;SDS011;35177;45.900;5.946;2023-02-15T02:01:04;63.17;;;27.48;;
49310;SDS011;35177;45.900;5.946;2023-02-15T02:06:27;65.10;;;30.58;;
49310;SDS011;35177;45.900;5.946;2023-02-15T02:08:54;61.92;;;28.40;;
49310;SDS011;35177;45.900;5.946;2023-02-15T02:11:20;89.05;;;35.67;;
49310;SDS011;35177;45.900;5.946;2023-02-15T02:13:46;81.38;;;35.65;;
49310;SDS011;35177;45.900;5.946;2023-02-15T02:28:10;57.33;;;27.58;;
49310;SDS011;35177;45.900;5.946;2023-02-15T02:30:50;54.00;;;23.83;;
49310;SDS011;35177;45.900;5.946;2023-02-15T02:36:15;57.13;;;26.27;;
49310;SDS011;35177;45.900;5.946;2023-02-15T02:46:55;66.53;;;28.80;;
49310;SDS011;35177;45.900;5.946;2023-02-15T02:49:43;67.10;;;28.17;;
49310;SDS011;35177;45.900;5.946;2023-02-15T02:57:37;52.95;;;25.00;;
49310;SDS011;35177;45.900;5.946;2023-02-15T03:00:11;63.35;;;25.40;;
49310;SDS011;35177;45.900;5.946;2023-02-15T03:02:38;47.70;;;24.80;;
49310;SDS011;35177;45.900;5.946;2023-02-15T03:05:11;53.17;;;26.67;;
49310;SDS011;35177;45.900;5.946;2023-02-15T03:07:40;56.05;;;24.65;;
49310;SDS011;35177;45.900;5.946;2023-02-15T03:10:08;50.95;;;22.70;;
49310;SDS011;35177;45.900;5.946;2023-02-15T03:12:35;52.30;;;24.52;;
49310;SDS011;35177;45.900;5.946;2023-02-15T03:15:06;56.20;;;26.08;;
49310;SDS011;35177;45.900;5.946;2023-02-15T03:17:44;55.58;;;23.48;;
49310;SDS011;35177;45.900;5.946;2023-02-15T03:20:15;61.95;;;26.95;;
49310;SDS011;35177;45.900;5.946;2023-02-15T03:23:02;63.55;;;27.52;;
49310;SDS011;35177;45.900;5.946;2023-02-15T03:25:32;63.15;;;27.92;;
49310;SDS011;35177;45.900;5.946;2023-02-15T03:28:01;60.80;;;27.38;;
49310;SDS011;35177;45.900;5.946;2023-02-15T03:30:31;68.13;;;27.75;;
49310;SDS011;35177;45.900;5.946;2023-02-15T03:33:00;68.90;;;30.73;;
49310;SDS011;35177;45.900;5.946;2023-02-15T03:35:31;54.42;;;26.25;;
49310;SDS011;35177;45.900;5.946;2023-02-15T03:38:04;61.47;;;25.92;;
49310;SDS011;35177;45.900;5.946;2023-02-15T03:40:37;57.42;;;26.67;;
49310;SDS011;35177;45.900;5.946;2023-02-15T03:46:08;48.05;;;23.40;;
49310;SDS011;35177;45.900;5.946;2023-02-15T03:48:42;52.22;;;25.00;;
49310;SDS011;35177;45.900;5.946;2023-02-15T03:51:12;49.55;;;22.10;;
49310;SDS011;35177;45.900;5.946;2023-02-15T03:54:06;54.03;;;26.05;;
49310;SDS011;35177;45.900;5.946;2023-02-15T03:56:37;58.65;;;26.45;;
49310;SDS011;35177;45.900;5.946;2023-02-15T03:59:06;60.45;;;25.63;;
49310;SDS011;35177;45.900;5.946;2023-02-15T04:04:25;54.72;;;24.85;;
49310;SDS011;35177;45.900;5.946;2023-02-15T04:06:57;58.03;;;26.58;;
49310;SDS011;35177;45.900;5.946;2023-02-15T04:09:22;57.60;;;26.92;;
49310;SDS011;35177;45.900;5.946;2023-02-15T04:12:06;59.03;;;24.98;;
49310;SDS011;35177;45.900;5.946;2023-02-15T04:14:31;53.00;;;23.83;;
49310;SDS011;35177;45.900;5.946;2023-02-15T04:17:16;54.47;;;24.27;;
49310;SDS011;35177;45.900;5.946;2023-02-15T04:19:41;60.08;;;27.63;;
49310;SDS011;35177;45.900;5.946;2023-02-15T04:22:25;57.40;;;26.13;;
49310;SDS011;35177;45.900;5.946;2023-02-15T04:25:09;58.15;;;24.23;;
49310;SDS011;35177;45.900;5.946;2023-02-15T04:27:38;66.70;;;27.75;;
49310;SDS011;35177;45.900;5.946;2023-02-15T04:30:08;55.50;;;27.65;;
49310;SDS011;35177;45.900;5.946;2023-02-15T04:32:34;61.60;;;25.15;;
49310;SDS011;35177;45.900;5.946;2023-02-15T04:35:01;54.15;;;24.67;;
49310;SDS011;35177;45.900;5.946;2023-02-15T04:37:26;57.75;;;25.02;;
49310;SDS011;35177;45.900;5.946;2023-02-15T04:39:52;50.88;;;23.55;;
49310;SDS011;35177;45.900;5.946;2023-02-15T04:42:17;57.33;;;24.80;;
49310;SDS011;35177;45.900;5.946;2023-02-15T04:44:43;55.72;;;25.35;;
49310;SDS011;35177;45.900;5.946;2023-02-15T04:47:08;52.08;;;25.05;;
49310;SDS011;35177;45.900;5.946;2023-02-15T04:49:34;55.30;;;25.02;;
49310;SDS011;35177;45.900;5.946;2023-02-15T04:52:00;53.50;;;24.38;;
49310;SDS011;35177;45.900;5.946;2023-02-15T04:54:25;60.50;;;23.98;;
49310;SDS011;35177;45.900;5.946;2023-02-15T04:56:51;54.97;;;25.60;;
49310;SDS011;35177;45.900;5.946;2023-02-15T04:59:16;56.70;;;25.13;;
49310;SDS011;35177;45.900;5.946;2023-02-15T05:01:42;56.38;;;23.75;;
49310;SDS011;35177;45.900;5.946;2023-02-15T05:04:07;62.33;;;28.30;;
49310;SDS011;35177;45.900;5.946;2023-02-15T05:06:33;61.05;;;26.15;;
49310;SDS011;35177;45.900;5.946;2023-02-15T05:08:58;60.33;;;26.33;;
49310;SDS011;35177;45.900;5.946;2023-02-15T05:11:24;53.78;;;24.98;;
49310;SDS011;35177;45.900;5.946;2023-02-15T05:13:50;52.78;;;23.52;;
49310;SDS011;35177;45.900;5.946;2023-02-15T05:16:16;53.35;;;24.13;;
49310;SDS011;35177;45.900;5.946;2023-02-15T05:18:41;52.22;;;24.08;;
49310;SDS011;35177;45.900;5.946;2023-02-15T05:21:07;63.17;;;27.80;;
49310;SDS011;35177;45.900;5.946;2023-02-15T05:23:32;67.57;;;29.73;;
49310;SDS011;35177;45.900;5.946;2023-02-15T05:25:58;62.17;;;26.10;;
49310;SDS011;35177;45.900;5.946;2023-02-15T05:28:42;62.47;;;25.75;;
49310;SDS011;35177;45.900;5.946;2023-02-15T05:33:37;57.90;;;24.80;;
49310;SDS011;35177;45.900;5.946;2023-02-15T05:36:04;57.55;;;26.77;;
49310;SDS011;35177;45.900;5.946;2023-02-15T05:38:30;59.80;;;26.92;;
49310;SDS011;35177;45.900;5.946;2023-02-15T05:40:56;61.05;;;24.73;;
49310;SDS011;35177;45.900;5.946;2023-02-15T05:43:22;50.55;;;23.52;;
49310;SDS011;35177;45.900;5.946;2023-02-15T05:45:49;61.13;;;26.08;;
49310;SDS011;35177;45.900;5.946;2023-02-15T05:48:18;56.60;;;25.33;;
49310;SDS011;35177;45.900;5.946;2023-02-15T05:50:45;52.33;;;24.38;;
49310;SDS011;35177;45.900;5.946;2023-02-15T05:53:11;58.05;;;24.55;;
49310;SDS011;35177;45.900;5.946;2023-02-15T05:55:37;58.85;;;26.27;;
49310;SDS011;35177;45.900;5.946;2023-02-15T05:58:04;53.88;;;25.65;;
49310;SDS011;35177;45.900;5.946;2023-02-15T06:00:30;53.13;;;24.50;;
49310;SDS011;35177;45.900;5.946;2023-02-15T06:02:55;59.08;;;25.55;;
49310;SDS011;35177;45.900;5.946;2023-02-15T06:05:21;57.40;;;27.55;;
49310;SDS011;35177;45.900;5.946;2023-02-15T06:07:47;53.63;;;24.70;;
49310;SDS011;35177;45.900;5.946;2023-02-15T06:10:13;58.25;;;25.65;;
49310;SDS011;35177;45.900;5.946;2023-02-15T06:12:39;63.78;;;26.38;;
49310;SDS011;35177;45.900;5.946;2023-02-15T06:15:04;66.07;;;26.98;;
49310;SDS011;35177;45.900;5.946;2023-02-15T06:17:30;60.20;;;26.35;;
49310;SDS011;35177;45.900;5.946;2023-02-15T06:19:55;50.83;;;23.63;;
49310;SDS011;35177;45.900;5.946;2023-02-15T06:22:21;56.45;;;24.50;;
49310;SDS011;35177;45.900;5.946;2023-02-15T06:24:47;58.80;;;26.55;;
49310;SDS011;35177;45.900;5.946;2023-02-15T06:27:12;55.00;;;23.83;;
49310;SDS011;35177;45.900;5.946;2023-02-15T06:29:38;49.53;;;24.10;;
49310;SDS011;35177;45.900;5.946;2023-02-15T06:32:04;56.40;;;24.50;;
49310;SDS011;35177;45.900;5.946;2023-02-15T06:34:29;51.10;;;24.90;;
49310;SDS011;35177;45.900;5.946;2023-02-15T06:36:55;55.70;;;25.58;;
49310;SDS011;35177;45.900;5.946;2023-02-15T06:39:20;46.97;;;22.58;;
49310;SDS011;35177;45.900;5.946;2023-02-15T06:41:46;50.75;;;23.23;;
49310;SDS011;35177;45.900;5.946;2023-02-15T06:44:11;52.53;;;25.15;;
49310;SDS011;35177;45.900;5.946;2023-02-15T06:46:37;74.05;;;33.60;;
49310;SDS011;35177;45.900;5.946;2023-02-15T06:49:03;69.65;;;30.67;;
49310;SDS011;35177;45.900;5.946;2023-02-15T06:51:29;67.88;;;29.38;;
49310;SDS011;35177;45.900;5.946;2023-02-15T06:53:55;62.15;;;27.10;;
49310;SDS011;35177;45.900;5.946;2023-02-15T06:56:20;63.25;;;28.35;;
49310;SDS011;35177;45.900;5.946;2023-02-15T06:58:46;60.50;;;28.75;;
49310;SDS011;35177;45.900;5.946;2023-02-15T07:01:14;61.10;;;27.52;;
49310;SDS011;35177;45.900;5.946;2023-02-15T07:03:39;61.60;;;29.42;;
49310;SDS011;35177;45.900;5.946;2023-02-15T07:06:05;54.70;;;24.80;;
49310;SDS011;35177;45.900;5.946;2023-02-15T07:08:33;50.55;;;24.10;;
49310;SDS011;35177;45.900;5.946;2023-02-15T07:10:59;48.15;;;24.15;;
49310;SDS011;35177;45.900;5.946;2023-02-15T07:13:44;50.08;;;22.33;;
49310;SDS011;35177;45.900;5.946;2023-02-15T07:16:10;46.83;;;21.75;;
49310;SDS011;35177;45.900;5.946;2023-02-15T07:18:36;41.13;;;21.13;;
49310;SDS011;35177;45.900;5.946;2023-02-15T07:21:01;46.28;;;21.65;;
49310;SDS011;35177;45.900;5.946;2023-02-15T07:23:27;43.08;;;21.33;;
49310;SDS011;35177;45.900;5.946;2023-02-15T07:25:56;43.65;;;22.50;;
49310;SDS011;35177;45.900;5.946;2023-02-15T07:28:22;48.85;;;23.70;;
49310;SDS011;35177;45.900;5.946;2023-02-15T07:30:48;47.53;;;23.63;;
49310;SDS011;35177;45.900;5.946;2023-02-15T07:33:14;44.60;;;22.00;;
49310;SDS011;35177;45.900;5.946;2023-02-15T07:38:18;38.53;;;20.15;;
49310;SDS011;35177;45.900;5.946;2023-02-15T07:40:44;43.10;;;20.77;;
49310;SDS011;35177;45.900;5.946;2023-02-15T07:43:10;40.80;;;20.17;;
49310;SDS011;35177;45.900;5.946;2023-02-15T07:45:36;39.17;;;20.83;;
49310;SDS011;35177;45.900;5.946;2023-02-15T07:48:01;40.00;;;20.90;;
49310;SDS011;35177;45.900;5.946;2023-02-15T07:50:27;36.60;;;19.23;;
49310;SDS011;35177;45.900;5.946;2023-02-15T07:52:53;39.40;;;20.95;;
49310;SDS011;35177;45.900;5.946;2023-02-15T07:55:18;40.33;;;20.00;;
49310;SDS011;35177;45.900;5.946;2023-02-15T07:57:44;36.40;;;17.90;;
49310;SDS011;35177;45.900;5.946;2023-02-15T08:00:12;36.58;;;18.60;;
49310;SDS011;35177;45.900;5.946;2023-02-15T08:02:39;36.95;;;19.15;;
49310;SDS011;35177;45.900;5.946;2023-02-15T08:05:05;35.00;;;19.75;;
49310;SDS011;35177;45.900;5.946;2023-02-15T08:07:31;34.90;;;18.17;;
49310;SDS011;35177;45.900;5.946;2023-02-15T08:09:57;33.50;;;16.67;;
49310;SDS011;35177;45.900;5.946;2023-02-15T08:12:25;32.28;;;17.90;;
49310;SDS011;35177;45.900;5.946;2023-02-15T08:14:51;34.10;;;17.27;;
49310;SDS011;35177;45.900;5.946;2023-02-15T08:17:17;34.30;;;18.05;;
49310;SDS011;35177;45.900;5.946;2023-02-15T08:19:43;35.58;;;17.17;;
49310;SDS011;35177;45.900;5.946;2023-02-15T08:22:11;34.20;;;18.30;;
49310;SDS011;35177;45.900;5.946;2023-02-15T08:24:39;36.10;;;17.83;;
49310;SDS011;35177;45.900;5.946;2023-02-15T08:27:06;37.85;;;17.02;;
49310;SDS011;35177;45.900;5.946;2023-02-15T08:29:34;28.45;;;16.65;;
49310;SDS011;35177;45.900;5.946;2023-02-15T08:32:02;31.70;;;17.20;;
49310;SDS011;35177;45.900;5.946;2023-02-15T08:34:31;28.73;;;16.15;;
49310;SDS011;35177;45.900;5.946;2023-02-15T08:36:58;31.30;;;17.02;;
49310;SDS011;35177;45.900;5.946;2023-02-15T08:39:24;26.73;;;15.75;;
49310;SDS011;35177;45.900;5.946;2023-02-15T08:41:50;32.42;;;17.48;;
49310;SDS011;35177;45.900;5.946;2023-02-15T08:44:16;26.33;;;15.73;;
49310;SDS011;35177;45.900;5.946;2023-02-15T08:46:43;25.20;;;15.52;;
49310;SDS011;35177;45.900;5.946;2023-02-15T08:49:11;27.38;;;13.10;;
49310;SDS011;35177;45.900;5.946;2023-02-15T08:51:39;25.33;;;14.10;;
49310;SDS011;35177;45.900;5.946;2023-02-15T08:54:06;24.42;;;13.60;;
49310;SDS011;35177;45.900;5.946;2023-02-15T08:56:37;26.40;;;15.18;;
49310;SDS011;35177;45.900;5.946;2023-02-15T08:59:05;27.33;;;14.73;;
49310;SDS011;35177;45.900;5.946;2023-02-15T09:01:32;23.00;;;13.85;;
49310;SDS011;35177;45.900;5.946;2023-02-15T09:04:06;27.08;;;14.82;;
49310;SDS011;35177;45.900;5.946;2023-02-15T09:06:33;20.42;;;13.45;;
49310;SDS011;35177;45.900;5.946;2023-02-15T09:08:59;20.85;;;12.18;;
49310;SDS011;35177;45.900;5.946;2023-02-15T09:11:30;22.30;;;13.05;;
49310;SDS011;35177;45.900;5.946;2023-02-15T09:14:01;20.30;;;12.52;;
49310;SDS011;35177;45.900;5.946;2023-02-15T09:16:29;22.75;;;13.43;;
49310;SDS011;35177;45.900;5.946;2023-02-15T09:18:56;19.63;;;12.25;;
49310;SDS011;35177;45.900;5.946;2023-02-15T09:21:23;18.38;;;11.70;;
49310;SDS011;35177;45.900;5.946;2023-02-15T09:23:51;18.98;;;11.55;;
49310;SDS011;35177;45.900;5.946;2023-02-15T09:26:21;21.90;;;13.20;;
49310;SDS011;35177;45.900;5.946;2023-02-15T09:28:47;18.13;;;12.07;;
49310;SDS011;35177;45.900;5.946;2023-02-15T09:31:18;20.27;;;11.93;;
49310;SDS011;35177;45.900;5.946;2023-02-15T09:33:45;20.20;;;12.48;;
49310;SDS011;35177;45.900;5.946;2023-02-15T09:36:20;23.30;;;12.30;;
49310;SDS011;35177;45.900;5.946;2023-02-15T09:38:46;17.40;;;11.18;;
49310;SDS011;35177;45.900;5.946;2023-02-15T09:41:21;17.67;;;11.70;;
49310;SDS011;35177;45.900;5.946;2023-02-15T09:55:10;17.38;;;11.60;;
49310;SDS011;35177;45.900;5.946;2023-02-15T10:00:43;14.45;;;10.02;;
49310;SDS011;35177;45.900;5.946;2023-02-15T10:08:56;16.77;;;10.77;;
49310;SDS011;35177;45.900;5.946;2023-02-15T10:11:27;19.65;;;11.98;;
49310;SDS011;35177;45.900;5.946;2023-02-15T10:25:36;19.30;;;13.13;;
49310;SDS011;35177;45.900;5.946;2023-02-15T10:28:03;20.75;;;12.68;;
49310;SDS011;35177;45.900;5.946;2023-02-15T10:39:00;24.05;;;14.25;;
49310;SDS011;35177;45.900;5.946;2023-02-15T10:41:37;27.45;;;15.48;;
49310;SDS011;35177;45.900;5.946;2023-02-15T10:55:36;24.45;;;15.10;;
49310;SDS011;35177;45.900;5.946;2023-02-15T11:01:27;26.13;;;14.52;;
49310;SDS011;35177;45.900;5.946;2023-02-15T11:04:28;26.65;;;15.77;;
49310;SDS011;35177;45.900;5.946;2023-02-15T11:07:04;25.63;;;16.05;;
49310;SDS011;35177;45.900;5.946;2023-02-15T11:09:37;30.05;;;17.05;;
49310;SDS011;35177;45.900;5.946;2023-02-15T11:12:09;26.10;;;15.43;;
49310;SDS011;35177;45.900;5.946;2023-02-15T11:14:39;24.35;;;14.85;;
49310;SDS011;35177;45.900;5.946;2023-02-15T11:17:14;49.97;;;16.35;;
49310;SDS011;35177;45.900;5.946;2023-02-15T11:20:08;28.50;;;15.68;;
49310;SDS011;35177;45.900;5.946;2023-02-15T11:22:35;26.50;;;15.43;;
49310;SDS011;35177;45.900;5.946;2023-02-15T11:25:01;31.38;;;15.07;;
49310;SDS011;35177;45.900;5.946;2023-02-15T11:27:29;28.73;;;16.63;;
49310;SDS011;35177;45.900;5.946;2023-02-15T11:29:59;29.27;;;15.85;;
49310;SDS011;35177;45.900;5.946;2023-02-15T11:32:33;25.20;;;15.60;;
49310;SDS011;35177;45.900;5.946;2023-02-15T11:37:40;30.27;;;16.30;;
49310;SDS011;35177;45.900;5.946;2023-02-15T11:40:28;25.35;;;15.68;;
49310;SDS011;35177;45.900;5.946;2023-02-15T11:43:07;26.63;;;15.43;;
49310;SDS011;35177;45.900;5.946;2023-02-15T11:45:45;27.02;;;16.38;;
49310;SDS011;35177;45.900;5.946;2023-02-15T11:48:12;30.58;;;15.55;;
49310;SDS011;35177;45.900;5.946;2023-02-15T11:50:39;28.27;;;15.43;;
49310;SDS011;35177;45.900;5.946;2023-02-15T11:53:07;22.60;;;13.50;;
49310;SDS011;35177;45.900;5.946;2023-02-15T11:55:38;29.55;;;15.20;;
49310;SDS011;35177;45.900;5.946;2023-02-15T11:58:08;29.67;;;15.85;;
49310;SDS011;35177;45.900;5.946;2023-02-15T12:01:11;28.02;;;14.82;;
49310;SDS011;35177;45.900;5.946;2023-02-15T12:06:32;20.83;;;11.77;;
49310;SDS011;35177;45.900;5.946;2023-02-15T12:09:12;21.05;;;11.57;;
49310;SDS011;35177;45.900;5.946;2023-02-15T12:11:44;18.98;;;10.35;;
49310;SDS011;35177;45.900;5.946;2023-02-15T12:14:10;26.52;;;9.02;;
49310;SDS011;35177;45.900;5.946;2023-02-15T12:16:41;17.92;;;10.30;;
49310;SDS011;35177;45.900;5.946;2023-02-15T12:22:05;20.92;;;10.98;;
49310;SDS011;35177;45.900;5.946;2023-02-15T12:24:46;20.42;;;11.35;;
49310;SDS011;35177;45.900;5.946;2023-02-15T12:27:15;24.10;;;12.43;;
49310;SDS011;35177;45.900;5.946;2023-02-15T12:29:41;21.65;;;12.52;;
49310;SDS011;35177;45.900;5.946;2023-02-15T12:32:22;22.38;;;12.15;;
49310;SDS011;35177;45.900;5.946;2023-02-15T12:34:50;13.95;;;9.13;;
49310;SDS011;35177;45.900;5.946;2023-02-15T12:37:21;20.77;;;10.45;;
49310;SDS011;35177;45.900;5.946;2023-02-15T12:39:57;18.23;;;9.98;;
49310;SDS011;35177;45.900;5.946;2023-02-15T12:44:58;14.77;;;7.95;;
49310;SDS011;35177;45.900;5.946;2023-02-15T12:47:26;17.13;;;8.82;;
49310;SDS011;35177;45.900;5.946;2023-02-15T12:50:10;18.02;;;8.30;;
49310;SDS011;35177;45.900;5.946;2023-02-15T12:52:48;21.02;;;9.63;;
49310;SDS011;35177;45.900;5.946;2023-02-15T12:55:25;21.48;;;8.70;;
49310;SDS011;35177;45.900;5.946;2023-02-15T12:58:37;14.63;;;8.02;;
49310;SDS011;35177;45.900;5.946;2023-02-15T13:03:36;16.35;;;9.35;;
49310;SDS011;35177;45.900;5.946;2023-02-15T13:06:03;21.58;;;9.73;;
49310;SDS011;35177;45.900;5.946;2023-02-15T13:08:54;16.65;;;8.77;;
49310;SDS011;35177;45.900;5.946;2023-02-15T13:11:30;20.92;;;9.80;;
49310;SDS011;35177;45.900;5.946;2023-02-15T13:14:03;18.00;;;9.82;;
49310;SDS011;35177;45.900;5.946;2023-02-15T13:16:44;16.95;;;9.23;;
49310;SDS011;35177;45.900;5.946;2023-02-15T13:19:12;18.38;;;9.25;;
49310;SDS011;35177;45.900;5.946;2023-02-15T13:21:56;24.20;;;11.25;;
49310;SDS011;35177;45.900;5.946;2023-02-15T13:24:27;22.58;;;11.48;;
49310;SDS011;35177;45.900;5.946;2023-02-15T13:26:58;20.42;;;11.52;;
49310;SDS011;35177;45.900;5.946;2023-02-15T13:31:55;19.05;;;11.05;;
49310;SDS011;35177;45.900;5.946;2023-02-15T13:34:25;23.58;;;11.90;;
49310;SDS011;35177;45.900;5.946;2023-02-15T13:42:30;22.02;;;12.10;;
49310;SDS011;35177;45.900;5.946;2023-02-15T13:45:00;24.15;;;12.57;;
49310;SDS011;35177;45.900;5.946;2023-02-15T13:50:36;24.30;;;13.02;;
49310;SDS011;35177;45.900;5.946;2023-02-15T13:56:00;23.35;;;11.77;;
49310;SDS011;35177;45.900;5.946;2023-02-15T13:58:41;23.23;;;11.73;;
49310;SDS011;35177;45.900;5.946;2023-02-15T14:01:42;22.38;;;12.25;;
49310;SDS011;35177;45.900;5.946;2023-02-15T14:04:17;34.00;;;12.45;;
49310;SDS011;35177;45.900;5.946;2023-02-15T14:15:54;23.05;;;11.63;;
49310;SDS011;35177;45.900;5.946;2023-02-15T14:21:21;26.95;;;12.07;;
49310;SDS011;35177;45.900;5.946;2023-02-15T14:32:27;19.33;;;10.77;;
49310;SDS011;35177;45.900;5.946;2023-02-15T14:35:01;20.88;;;10.55;;
49310;SDS011;35177;45.900;5.946;2023-02-15T14:37:42;24.45;;;10.88;;
49310;SDS011;35177;45.900;5.946;2023-02-15T14:40:30;21.80;;;10.25;;
49310;SDS011;35177;45.900;5.946;2023-02-15T14:48:30;20.25;;;10.98;;
49310;SDS011;35177;45.900;5.946;2023-02-15T14:50:58;20.88;;;10.38;;
49310;SDS011;35177;45.900;5.946;2023-02-15T15:01:28;22.23;;;11.45;;
49310;SDS011;35177;45.900;5.946;2023-02-15T15:03:58;23.92;;;11.20;;
49310;SDS011;35177;45.900;5.946;2023-02-15T15:06:29;22.55;;;11.55;;
49310;SDS011;35177;45.900;5.946;2023-02-15T15:09:42;21.35;;;10.10;;
49310;SDS011;35177;45.900;5.946;2023-02-15T15:11:53;23.42;;;10.77;;
49310;SDS011;35177;45.900;5.946;2023-02-15T15:16:58;24.63;;;10.65;;
49310;SDS011;35177;45.900;5.946;2023-02-15T15:20:10;22.45;;;11.23;;
49310;SDS011;35177;45.900;5.946;2023-02-15T15:22:17;24.80;;;10.90;;
49310;SDS011;35177;45.900;5.946;2023-02-15T15:24:52;22.33;;;10.60;;
49310;SDS011;35177;45.900;5.946;2023-02-15T15:32:38;20.50;;;10.60;;
49310;SDS011;35177;45.900;5.946;2023-02-15T15:35:33;23.10;;;12.30;;
49310;SDS011;35177;45.900;5.946;2023-02-15T15:49:45;28.45;;;13.05;;
49310;SDS011;35177;45.900;5.946;2023-02-15T15:52:15;25.08;;;12.45;;
49310;SDS011;35177;45.900;5.946;2023-02-15T15:54:43;28.40;;;12.98;;
49310;SDS011;35177;45.900;5.946;2023-02-15T15:59:58;30.52;;;14.43;;
49310;SDS011;35177;45.900;5.946;2023-02-15T16:02:24;27.30;;;13.20;;
49310;SDS011;35177;45.900;5.946;2023-02-15T16:04:50;24.70;;;12.90;;
49310;SDS011;35177;45.900;5.946;2023-02-15T16:10:03;23.15;;;11.95;;
49310;SDS011;35177;45.900;5.946;2023-02-15T16:12:45;30.40;;;12.52;;
49310;SDS011;35177;45.900;5.946;2023-02-15T16:15:14;21.70;;;11.57;;
49310;SDS011;35177;45.900;5.946;2023-02-15T16:17:41;26.13;;;12.25;;
49310;SDS011;35177;45.900;5.946;2023-02-15T16:22:43;28.13;;;12.43;;
49310;SDS011;35177;45.900;5.946;2023-02-15T16:27:40;24.45;;;11.25;;
49310;SDS011;35177;45.900;5.946;2023-02-15T16:33:03;21.67;;;11.23;;
49310;SDS011;35177;45.900;5.946;2023-02-15T16:35:42;26.63;;;11.18;;
49310;SDS011;35177;45.900;5.946;2023-02-15T16:38:34;30.35;;;11.68;;
49310;SDS011;35177;45.900;5.946;2023-02-15T16:41:29;27.30;;;12.25;;
49310;SDS011;35177;45.900;5.946;2023-02-15T16:43:57;22.85;;;11.57;;
49310;SDS011;35177;45.900;5.946;2023-02-15T16:46:33;23.17;;;11.40;;
49310;SDS011;35177;45.900;5.946;2023-02-15T16:49:14;20.15;;;11.63;;
49310;SDS011;35177;45.900;5.946;2023-02-15T16:51:45;28.52;;;12.80;;
49310;SDS011;35177;45.900;5.946;2023-02-15T16:54:23;31.95;;;15.20;;
49310;SDS011;35177;45.900;5.946;2023-02-15T16:56:50;35.15;;;14.65;;
49310;SDS011;35177;45.900;5.946;2023-02-15T16:59:36;31.20;;;15.75;;
49310;SDS011;35177;45.900;5.946;2023-02-15T17:02:13;42.40;;;18.13;;
49310;SDS011;35177;45.900;5.946;2023-02-15T17:04:43;34.92;;;18.05;;
49310;SDS011;35177;45.900;5.946;2023-02-15T17:07:16;40.67;;;18.13;;
49310;SDS011;35177;45.900;5.946;2023-02-15T17:09:53;37.88;;;17.05;;
49310;SDS011;35177;45.900;5.946;2023-02-15T17:12:54;37.80;;;17.85;;
49310;SDS011;35177;45.900;5.946;2023-02-15T17:18:05;28.35;;;13.13;;
49310;SDS011;35177;45.900;5.946;2023-02-15T17:20:35;35.65;;;14.23;;
49310;SDS011;35177;45.900;5.946;2023-02-15T17:23:06;24.48;;;12.55;;
49310;SDS011;35177;45.900;5.946;2023-02-15T17:25:43;32.50;;;15.57;;
49310;SDS011;35177;45.900;5.946;2023-02-15T17:28:21;35.22;;;16.95;;
49310;SDS011;35177;45.900;5.946;2023-02-15T17:30:50;38.30;;;20.42;;
49310;SDS011;35177;45.900;5.946;2023-02-15T17:33:25;27.48;;;16.00;;
49310;SDS011;35177;45.900;5.946;2023-02-15T17:36:11;29.05;;;14.95;;
49310;SDS011;35177;45.900;5.946;2023-02-15T17:38:42;23.58;;;14.38;;
49310;SDS011;35177;45.900;5.946;2023-02-15T17:41:24;23.42;;;11.93;;
49310;SDS011;35177;45.900;5.946;2023-02-15T17:43:50;24.45;;;13.25;;
49310;SDS011;35177;45.900;5.946;2023-02-15T17:46:16;30.65;;;15.85;;
49310;SDS011;35177;45.900;5.946;2023-02-15T17:48:45;30.42;;;16.30;;
49310;SDS011;35177;45.900;5.946;2023-02-15T17:51:12;27.77;;;16.15;;
49310;SDS011;35177;45.900;5.946;2023-02-15T17:53:39;25.48;;;13.50;;